createdAt,value
2023-02-15T00:00:11.824Z,8.02
2023-02-15T00:02:40.766Z,8.11
2023-02-15T00:05:09.313Z,8.09
2023-02-15T00:07:37.212Z,8.18
2023-02-15T00:10:05.873Z,8.32
2023-02-15T00:12:33.946Z,8.23
2023-02-15T00:15:01.800Z,8.33
2023-02-15T00:17:30.456Z,8.00
2023-02-15T00:19:58.279Z,8.00
2023-02-15T00:22:27.133Z,7.80
2023-02-15T00:24:54.975Z,7.62
2023-02-15T00:27:22.917Z,7.55
2023-02-15T00:29:50.874Z,7.52
2023-02-15T00:32:18.716Z,7.62
2023-02-15T00:34:46.489Z,7.55
2023-02-15T00:37:14.374Z,7.74
2023-02-15T00:39:42.306Z,7.69
2023-02-15T00:42:10.266Z,7.66
2023-02-15T00:44:38.215Z,7.63
2023-02-15T00:47:06.177Z,7.60
2023-02-15T00:49:34.025Z,7.65
2023-02-15T00:52:02.913Z,7.56
2023-02-15T00:54:30.885Z,7.50
2023-02-15T00:56:58.886Z,7.54
2023-02-15T00:59:26.906Z,7.44
2023-02-15T01:01:54.860Z,7.71
2023-02-15T01:04:22.812Z,7.50
2023-02-15T01:06:51.128Z,7.35
2023-02-15T01:09:19.099Z,7.26
2023-02-15T01:11:48.200Z,7.43
2023-02-15T01:14:16.210Z,7.38
2023-02-15T01:16:44.048Z,7.34
2023-02-15T01:19:12.031Z,7.16
2023-02-15T01:21:42.042Z,7.00
2023-02-15T01:24:15.427Z,7.03
2023-02-15T01:26:43.422Z,7.06
2023-02-15T01:29:11.353Z,7.16
2023-02-15T01:31:40.545Z,7.11
2023-02-15T01:34:08.630Z,7.02
2023-02-15T01:36:37.073Z,6.94
2023-02-15T01:39:05.171Z,6.91
2023-02-15T01:41:34.020Z,7.02
2023-02-15T01:44:04.064Z,7.01
2023-02-15T01:46:44.187Z,7.03
2023-02-15T01:49:17.903Z,7.13
2023-02-15T01:51:48.311Z,7.13
2023-02-15T01:54:27.406Z,7.23
2023-02-15T01:57:00.929Z,7.17
2023-02-15T01:59:29.307Z,7.16
2023-02-15T02:02:00.827Z,7.13
2023-02-15T02:04:52.101Z,7.11
2023-02-15T02:07:23.703Z,7.08
2023-02-15T02:09:51.815Z,6.97
2023-02-15T02:12:22.607Z,7.15
2023-02-15T02:14:52.706Z,7.28
2023-02-15T02:17:28.126Z,7.08
2023-02-15T02:20:29.910Z,6.87
2023-02-15T02:23:33.364Z,7.01
2023-02-15T02:26:10.248Z,7.03
2023-02-15T02:28:43.985Z,7.10
2023-02-15T02:31:30.617Z,7.27
2023-02-15T02:34:18.391Z,7.17
2023-02-15T02:37:24.567Z,7.07
2023-02-15T02:40:01.877Z,7.25
2023-02-15T02:42:51.683Z,7.08
2023-02-15T02:45:44.815Z,7.04
2023-02-15T02:48:21.046Z,6.97
2023-02-15T02:50:50.720Z,6.98
2023-02-15T02:53:18.568Z,6.80
2023-02-15T02:56:00.134Z,6.70
2023-02-15T02:58:36.378Z,6.86
2023-02-15T03:01:13.119Z,6.82
2023-02-15T03:03:48.006Z,6.74
2023-02-15T03:06:30.351Z,6.79
2023-02-15T03:09:25.149Z,6.74
2023-02-15T03:11:53.068Z,6.69
2023-02-15T03:14:22.817Z,6.76
2023-02-15T03:16:52.997Z,6.70
2023-02-15T03:19:28.760Z,6.74
2023-02-15T03:22:10.456Z,6.57
2023-02-15T03:24:54.592Z,6.61
2023-02-15T03:27:28.891Z,6.68
2023-02-15T03:30:00.022Z,6.53
2023-02-15T03:32:30.865Z,6.50
2023-02-15T03:34:58.872Z,6.38
2023-02-15T03:37:40.332Z,6.37
2023-02-15T03:40:45.852Z,6.37
2023-02-15T03:43:35.800Z,6.32
2023-02-15T03:46:19.233Z,6.30
2023-02-15T03:49:07.359Z,6.37
2023-02-15T03:51:40.602Z,6.39
2023-02-15T03:54:38.902Z,6.45
2023-02-15T03:57:58.372Z,6.39
2023-02-15T04:00:44.929Z,6.27
2023-02-15T04:03:48.090Z,6.29
2023-02-15T04:06:16.035Z,6.29
2023-02-15T04:09:02.341Z,6.20
2023-02-15T04:11:30.221Z,6.16
2023-02-15T04:13:58.158Z,6.14
2023-02-15T04:16:26.978Z,6.16
2023-02-15T04:19:13.959Z,6.21
2023-02-15T04:22:00.486Z,6.29
2023-02-15T04:24:46.828Z,6.13
2023-02-15T04:27:15.721Z,6.12
2023-02-15T04:29:44.260Z,6.14
2023-02-15T04:32:12.234Z,6.21
2023-02-15T04:34:40.205Z,6.12
2023-02-15T04:37:08.097Z,6.04
2023-02-15T04:39:36.029Z,6.02
2023-02-15T04:42:03.985Z,6.06
2023-02-15T04:44:31.783Z,6.09
2023-02-15T04:46:59.664Z,6.03
2023-02-15T04:49:27.533Z,6.16
2023-02-15T04:51:55.419Z,6.55
2023-02-15T04:54:23.339Z,6.32
2023-02-15T04:56:51.241Z,6.27
2023-02-15T04:59:19.074Z,6.02
2023-02-15T05:01:46.877Z,6.07
2023-02-15T05:04:14.905Z,6.01
2023-02-15T05:06:42.777Z,5.80
2023-02-15T05:09:12.625Z,5.62
2023-02-15T05:11:40.504Z,5.51
2023-02-15T05:14:08.866Z,5.47
2023-02-15T05:16:36.726Z,5.75
2023-02-15T05:19:05.058Z,5.55
2023-02-15T05:21:34.062Z,5.51
2023-02-15T05:24:01.904Z,5.54
2023-02-15T05:26:48.247Z,5.53
2023-02-15T05:29:16.128Z,5.52
2023-02-15T05:31:48.726Z,6.17
2023-02-15T05:34:16.620Z,6.08
2023-02-15T05:36:44.490Z,5.81
2023-02-15T05:39:12.370Z,5.63
2023-02-15T05:41:40.273Z,5.79
2023-02-15T05:44:08.100Z,5.51
2023-02-15T05:46:35.996Z,5.51
2023-02-15T05:49:04.185Z,5.58
2023-02-15T05:51:32.085Z,5.75
2023-02-15T05:53:59.960Z,5.62
2023-02-15T05:56:27.839Z,5.51
2023-02-15T05:58:56.071Z,5.57
2023-02-15T06:01:24.186Z,5.78
2023-02-15T06:03:53.297Z,5.79
2023-02-15T06:06:21.206Z,5.86
2023-02-15T06:08:49.386Z,5.80
2023-02-15T06:11:17.347Z,5.66
2023-02-15T06:13:45.230Z,5.57
2023-02-15T06:16:13.090Z,5.36
2023-02-15T06:18:40.986Z,5.36
2023-02-15T06:21:08.859Z,5.29
2023-02-15T06:23:36.728Z,5.47
2023-02-15T06:26:04.888Z,5.61
2023-02-15T06:28:32.835Z,5.45
2023-02-15T06:31:00.793Z,5.73
2023-02-15T06:33:28.808Z,6.02
2023-02-15T06:35:56.641Z,6.12
2023-02-15T06:38:24.463Z,5.91
2023-02-15T06:40:52.331Z,5.70
2023-02-15T06:43:20.181Z,5.72
2023-02-15T06:45:48.171Z,5.60
2023-02-15T06:48:16.211Z,5.67
2023-02-15T06:50:44.275Z,5.75
2023-02-15T06:53:12.182Z,5.75
2023-02-15T06:55:40.051Z,5.75
2023-02-15T06:58:07.935Z,5.89
2023-02-15T07:00:35.779Z,6.09
2023-02-15T07:03:04.098Z,6.43
2023-02-15T07:05:35.226Z,6.34
2023-02-15T07:08:03.400Z,6.45
2023-02-15T07:10:31.410Z,6.36
2023-02-15T07:12:59.355Z,6.30
2023-02-15T07:15:27.358Z,6.61
2023-02-15T07:17:55.222Z,6.56
2023-02-15T07:20:24.637Z,6.67
2023-02-15T07:22:53.056Z,6.66
2023-02-15T07:25:21.365Z,6.69
2023-02-15T07:27:49.213Z,6.75
2023-02-15T07:30:18.416Z,6.89
2023-02-15T07:33:05.859Z,7.16
2023-02-15T07:35:35.047Z,7.34
2023-02-15T07:38:02.942Z,7.44
2023-02-15T07:40:30.957Z,7.73
2023-02-15T07:43:00.351Z,7.80
2023-02-15T07:45:28.396Z,7.82
2023-02-15T07:47:56.484Z,7.99
2023-02-15T07:50:24.526Z,7.92
2023-02-15T07:52:52.455Z,8.01
2023-02-15T07:55:20.744Z,8.11
2023-02-15T07:57:51.175Z,8.60
2023-02-15T08:00:24.686Z,9.48
2023-02-15T08:03:13.695Z,11.19
2023-02-15T08:05:44.383Z,13.20
2023-02-15T08:08:31.823Z,14.78
2023-02-15T08:11:21.858Z,16.45
2023-02-15T08:13:57.693Z,17.42
2023-02-15T08:16:36.250Z,17.77
2023-02-15T08:19:08.351Z,17.56
2023-02-15T08:21:39.132Z,17.63
2023-02-15T08:24:09.753Z,18.09
2023-02-15T08:26:41.785Z,17.69
2023-02-15T08:29:11.435Z,16.71
2023-02-15T08:31:42.185Z,15.42
2023-02-15T08:34:12.770Z,14.66
2023-02-15T08:36:40.973Z,13.69
2023-02-15T08:39:09.218Z,12.65
2023-02-15T08:42:02.640Z,12.14
2023-02-15T08:44:30.802Z,12.27
2023-02-15T08:47:03.938Z,11.96
2023-02-15T08:49:32.679Z,11.94
2023-02-15T08:52:00.936Z,11.99
2023-02-15T08:54:28.915Z,12.28
2023-02-15T08:56:56.836Z,12.47
2023-02-15T08:59:26.672Z,12.53
2023-02-15T09:01:55.174Z,12.57
2023-02-15T09:04:23.776Z,12.63
2023-02-15T09:06:52.598Z,12.58
2023-02-15T09:09:21.221Z,12.66
2023-02-15T09:11:56.788Z,12.84
2023-02-15T09:14:27.874Z,13.09
2023-02-15T09:16:56.504Z,13.50
2023-02-15T09:19:25.178Z,13.57
2023-02-15T09:21:53.365Z,13.89
2023-02-15T09:24:21.382Z,14.12
2023-02-15T09:26:49.964Z,14.28
2023-02-15T09:29:19.227Z,14.62
2023-02-15T09:31:50.176Z,14.91
2023-02-15T09:34:21.124Z,15.00
2023-02-15T09:36:50.127Z,15.31
2023-02-15T09:39:21.091Z,15.55
2023-02-15T09:41:55.204Z,15.60
2023-02-15T09:44:42.166Z,15.81
2023-02-15T09:47:47.434Z,15.86
2023-02-15T09:50:35.093Z,16.23
2023-02-15T09:53:25.900Z,16.20
2023-02-15T09:56:15.396Z,16.67
2023-02-15T09:58:52.420Z,17.02
2023-02-15T10:01:44.285Z,16.94
2023-02-15T10:04:36.850Z,17.06
2023-02-15T10:07:29.434Z,17.36
2023-02-15T10:10:16.411Z,17.62
2023-02-15T10:13:12.500Z,17.73
2023-02-15T10:15:59.897Z,17.97
2023-02-15T10:18:33.742Z,18.41
2023-02-15T10:21:13.512Z,18.97
2023-02-15T10:23:56.471Z,19.18
2023-02-15T10:26:37.274Z,19.42
2023-02-15T10:29:29.560Z,19.95
2023-02-15T10:32:06.815Z,20.02
2023-02-15T10:34:43.570Z,20.26
2023-02-15T10:37:18.442Z,20.91
2023-02-15T10:40:07.877Z,21.17
2023-02-15T10:42:41.736Z,21.42
2023-02-15T10:45:25.269Z,21.63
2023-02-15T10:48:14.413Z,21.66
2023-02-15T10:50:48.202Z,21.92
2023-02-15T10:53:45.190Z,22.60
2023-02-15T10:56:29.977Z,23.24
2023-02-15T10:59:27.382Z,24.00
2023-02-15T11:02:02.361Z,24.47
2023-02-15T11:04:48.704Z,24.77
2023-02-15T11:07:28.060Z,26.33
2023-02-15T11:10:06.325Z,28.25
2023-02-15T11:12:34.819Z,28.33
2023-02-15T11:15:16.882Z,29.04
2023-02-15T11:17:52.273Z,28.77
2023-02-15T11:20:25.822Z,29.50
2023-02-15T11:22:54.960Z,30.40
2023-02-15T11:25:31.715Z,29.90
2023-02-15T11:28:01.108Z,30.55
2023-02-15T11:30:52.879Z,31.48
2023-02-15T11:33:30.416Z,30.98
2023-02-15T11:36:10.081Z,31.51
2023-02-15T11:38:44.466Z,31.97
2023-02-15T11:41:21.132Z,32.36
2023-02-15T11:44:02.237Z,34.59
2023-02-15T11:46:30.232Z,34.06
2023-02-15T11:48:59.578Z,33.73
2023-02-15T11:51:29.958Z,34.88
2023-02-15T11:53:58.048Z,34.12
2023-02-15T11:56:27.709Z,34.60
2023-02-15T11:58:59.097Z,33.43
2023-02-15T12:01:43.774Z,34.26
2023-02-15T12:04:25.941Z,33.94
2023-02-15T12:07:03.120Z,34.23
2023-02-15T12:09:39.930Z,35.49
2023-02-15T12:12:31.772Z,33.66
2023-02-15T12:15:05.602Z,35.20
2023-02-15T12:17:53.469Z,35.91
2023-02-15T12:20:21.375Z,35.07
2023-02-15T12:23:14.737Z,35.69
2023-02-15T12:25:55.565Z,35.93
2023-02-15T12:28:41.057Z,36.70
2023-02-15T12:31:42.464Z,36.22
2023-02-15T12:34:40.835Z,35.26
2023-02-15T12:37:20.179Z,34.83
2023-02-15T12:39:57.983Z,35.47
2023-02-15T12:42:27.792Z,35.23
2023-02-15T12:45:05.141Z,36.49
2023-02-15T12:47:33.676Z,36.72
2023-02-15T12:50:34.589Z,36.66
2023-02-15T12:53:24.860Z,36.44
2023-02-15T12:55:58.319Z,36.82
2023-02-15T12:58:28.278Z,37.58
2023-02-15T13:01:26.960Z,37.09
2023-02-15T13:04:05.600Z,38.22
2023-02-15T13:06:36.626Z,39.44
2023-02-15T13:09:13.463Z,40.08
2023-02-15T13:11:45.098Z,37.75
2023-02-15T13:14:33.876Z,37.80
2023-02-15T13:17:07.082Z,37.36
2023-02-15T13:19:51.815Z,37.69
2023-02-15T13:22:49.170Z,38.00
2023-02-15T13:25:26.513Z,37.98
2023-02-15T13:27:58.537Z,38.06
2023-02-15T13:30:33.773Z,38.76
2023-02-15T13:33:07.912Z,38.25
2023-02-15T13:35:51.505Z,37.35
2023-02-15T13:38:38.876Z,38.27
2023-02-15T13:41:14.623Z,38.77
2023-02-15T13:43:47.916Z,38.02
2023-02-15T13:46:30.854Z,38.48
2023-02-15T13:49:18.072Z,38.15
2023-02-15T13:52:05.668Z,37.39
2023-02-15T13:55:11.871Z,37.42
2023-02-15T13:58:13.574Z,37.15
2023-02-15T14:00:47.125Z,37.08
2023-02-15T14:03:52.723Z,36.87
2023-02-15T14:06:50.796Z,37.48
2023-02-15T14:09:29.436Z,36.50
2023-02-15T14:12:09.338Z,36.88
2023-02-15T14:15:03.255Z,36.97
2023-02-15T14:17:46.409Z,35.98
2023-02-15T14:20:45.425Z,35.24
2023-02-15T14:23:31.181Z,35.43
2023-02-15T14:26:15.366Z,36.78
2023-02-15T14:29:13.807Z,35.44
2023-02-15T14:31:50.713Z,35.39
2023-02-15T14:34:43.975Z,35.58
2023-02-15T14:37:15.413Z,35.23
2023-02-15T14:40:16.137Z,35.03
2023-02-15T14:42:49.334Z,34.90
2023-02-15T14:45:44.848Z,35.23
2023-02-15T14:48:31.179Z,34.18
2023-02-15T14:50:59.143Z,34.92
2023-02-15T14:53:33.132Z,34.64
2023-02-15T14:56:11.098Z,32.87
2023-02-15T14:58:39.469Z,32.68
2023-02-15T15:01:29.929Z,32.24
2023-02-15T15:04:23.152Z,32.63
2023-02-15T15:07:03.502Z,32.14
2023-02-15T15:09:35.172Z,32.13
2023-02-15T15:12:35.324Z,31.39
2023-02-15T15:15:05.260Z,30.37
2023-02-15T15:17:33.570Z,29.72
2023-02-15T15:20:02.734Z,29.51
2023-02-15T15:22:34.291Z,29.30
2023-02-15T15:25:11.905Z,28.82
2023-02-15T15:27:44.794Z,29.16
2023-02-15T15:30:15.372Z,28.12
2023-02-15T15:32:55.595Z,27.12
2023-02-15T15:35:45.140Z,26.50
2023-02-15T15:38:31.345Z,25.03
2023-02-15T15:41:25.516Z,24.30
2023-02-15T15:44:22.582Z,24.11
2023-02-15T15:47:07.442Z,23.33
2023-02-15T15:49:39.294Z,22.58
2023-02-15T15:52:16.779Z,22.36
2023-02-15T15:54:48.414Z,22.18
2023-02-15T15:57:46.958Z,21.75
2023-02-15T16:00:39.502Z,22.26
2023-02-15T16:03:14.946Z,22.18
2023-02-15T16:05:42.987Z,21.87
2023-02-15T16:08:10.867Z,21.99
2023-02-15T16:10:39.130Z,21.69
2023-02-15T16:13:08.330Z,21.54
2023-02-15T16:15:45.878Z,21.30
2023-02-15T16:18:18.335Z,21.15
2023-02-15T16:21:04.638Z,20.92
2023-02-15T16:23:41.023Z,20.80
2023-02-15T16:26:20.071Z,20.64
2023-02-15T16:28:52.856Z,20.29
2023-02-15T16:31:23.914Z,20.09
2023-02-15T16:33:56.685Z,20.02
2023-02-15T16:36:25.950Z,19.80
2023-02-15T16:38:53.745Z,19.59
2023-02-15T16:41:34.326Z,19.41
2023-02-15T16:44:08.725Z,19.38
2023-02-15T16:46:44.025Z,19.17
2023-02-15T16:49:20.785Z,19.06
2023-02-15T16:52:06.824Z,18.67
2023-02-15T16:54:36.442Z,18.61
2023-02-15T16:57:04.565Z,18.57
2023-02-15T16:59:44.522Z,18.39
2023-02-15T17:02:49.429Z,18.12
2023-02-15T17:05:16.903Z,18.16
2023-02-15T17:08:05.684Z,17.96
2023-02-15T17:10:38.226Z,18.33
2023-02-15T17:13:15.033Z,17.92
2023-02-15T17:16:02.206Z,17.76
2023-02-15T17:18:48.506Z,17.51
2023-02-15T17:21:22.409Z,17.44
2023-02-15T17:23:53.879Z,17.68
2023-02-15T17:26:29.860Z,17.29
2023-02-15T17:29:12.425Z,17.10
2023-02-15T17:31:41.924Z,17.22
2023-02-15T17:34:49.451Z,16.72
2023-02-15T17:37:37.838Z,16.39
2023-02-15T17:40:33.682Z,16.31
2023-02-15T17:43:01.901Z,16.58
2023-02-15T17:45:41.569Z,17.19
2023-02-15T17:48:31.951Z,16.67
2023-02-15T17:51:03.150Z,16.11
2023-02-15T17:53:31.518Z,15.89
2023-02-15T17:55:59.605Z,15.64
2023-02-15T17:58:27.577Z,15.66
2023-02-15T18:01:17.594Z,15.45
2023-02-15T18:04:10.359Z,15.37
2023-02-15T18:07:00.346Z,15.24
2023-02-15T18:09:47.193Z,15.12
2023-02-15T18:12:23.936Z,15.03
2023-02-15T18:14:54.438Z,15.01
2023-02-15T18:17:30.085Z,15.04
2023-02-15T18:19:58.053Z,15.03
2023-02-15T18:22:29.114Z,14.98
2023-02-15T18:24:57.035Z,14.78
2023-02-15T18:27:24.934Z,14.67
2023-02-15T18:29:52.809Z,14.72
2023-02-15T18:32:32.890Z,14.49
2023-02-15T18:35:03.813Z,14.51
2023-02-15T18:37:33.627Z,14.47
2023-02-15T18:40:04.410Z,14.53
2023-02-15T18:42:35.376Z,14.31
2023-02-15T18:45:16.556Z,14.22
2023-02-15T18:47:46.225Z,14.13
2023-02-15T18:50:16.473Z,14.20
2023-02-15T18:52:47.538Z,14.18
2023-02-15T18:55:18.494Z,14.00
2023-02-15T18:57:48.883Z,13.94
2023-02-15T19:00:28.528Z,13.69
2023-02-15T19:02:57.540Z,13.61
2023-02-15T19:05:30.217Z,13.72
2023-02-15T19:08:00.156Z,13.55
2023-02-15T19:10:30.621Z,13.56
2023-02-15T19:12:58.854Z,13.47
2023-02-15T19:15:30.659Z,13.38
2023-02-15T19:17:58.800Z,13.34
2023-02-15T19:20:39.937Z,13.35
2023-02-15T19:23:15.737Z,13.25
2023-02-15T19:25:43.685Z,13.29
2023-02-15T19:28:29.832Z,13.06
2023-02-15T19:30:57.986Z,13.02
2023-02-15T19:33:26.147Z,13.16
2023-02-15T19:35:58.178Z,13.05
2023-02-15T19:38:32.006Z,13.00
2023-02-15T19:41:08.240Z,12.92
2023-02-15T19:43:36.743Z,12.77
2023-02-15T19:46:05.962Z,12.81
2023-02-15T19:48:34.805Z,12.61
2023-02-15T19:51:04.800Z,12.32
2023-02-15T19:53:34.244Z,12.34
2023-02-15T19:56:04.247Z,12.32
2023-02-15T19:58:34.929Z,12.25
2023-02-15T20:01:04.282Z,12.23
2023-02-15T20:03:34.687Z,12.16
2023-02-15T20:06:04.382Z,12.04
2023-02-15T20:08:33.356Z,11.95
2023-02-15T20:11:02.381Z,11.97
2023-02-15T20:13:31.427Z,12.19
2023-02-15T20:16:02.583Z,11.93
2023-02-15T20:18:31.803Z,11.89
2023-02-15T20:21:02.859Z,11.96
2023-02-15T20:23:38.416Z,11.68
2023-02-15T20:26:19.514Z,11.66
2023-02-15T20:28:51.058Z,11.81
2023-02-15T20:31:21.773Z,11.79
2023-02-15T20:33:51.265Z,11.74
2023-02-15T20:36:22.434Z,11.61
2023-02-15T20:38:52.317Z,11.62
2023-02-15T20:41:37.002Z,11.53
2023-02-15T20:44:26.565Z,11.46
2023-02-15T20:46:57.301Z,11.45
2023-02-15T20:49:27.087Z,11.15
2023-02-15T20:51:56.352Z,11.20
2023-02-15T20:54:26.902Z,11.10
2023-02-15T20:56:54.650Z,11.03
2023-02-15T20:59:32.159Z,11.23
2023-02-15T21:02:21.141Z,11.12
2023-02-15T21:04:48.938Z,11.30
2023-02-15T21:07:18.955Z,11.00
2023-02-15T21:09:47.058Z,10.89
2023-02-15T21:12:17.289Z,11.00
2023-02-15T21:14:45.681Z,10.94
2023-02-15T21:17:16.252Z,10.79
2023-02-15T21:19:44.098Z,10.85
2023-02-15T21:22:14.563Z,10.90
2023-02-15T21:24:51.201Z,10.87
2023-02-15T21:27:19.166Z,10.82
2023-02-15T21:29:46.872Z,11.06
2023-02-15T21:32:14.707Z,10.91
2023-02-15T21:34:42.497Z,10.69
2023-02-15T21:37:30.530Z,10.57
2023-02-15T21:39:58.486Z,10.57
2023-02-15T21:42:46.802Z,10.64
2023-02-15T21:45:37.635Z,10.54
2023-02-15T21:48:05.513Z,10.35
2023-02-15T21:50:54.393Z,10.31
2023-02-15T21:53:33.569Z,10.25
2023-02-15T21:56:03.842Z,10.24
2023-02-15T21:58:35.836Z,10.27
2023-02-15T22:01:05.938Z,10.20
2023-02-15T22:03:36.443Z,10.27
2023-02-15T22:06:04.702Z,10.34
2023-02-15T22:08:33.224Z,10.24
2023-02-15T22:11:01.096Z,10.31
2023-02-15T22:13:32.357Z,10.53
2023-02-15T22:16:00.228Z,10.41
2023-02-15T22:18:33.973Z,10.17
2023-02-15T22:21:03.901Z,10.28
2023-02-15T22:23:32.392Z,10.14
2023-02-15T22:26:05.450Z,10.17
2023-02-15T22:28:51.749Z,9.91
2023-02-15T22:31:21.707Z,9.93
2023-02-15T22:33:52.528Z,10.03
2023-02-15T22:36:30.170Z,10.08
2023-02-15T22:38:58.505Z,10.03
2023-02-15T22:41:29.435Z,9.98
2023-02-15T22:43:57.909Z,9.89
2023-02-15T22:46:26.745Z,9.84
2023-02-15T22:48:54.630Z,9.91
2023-02-15T22:51:24.145Z,9.93
2023-02-15T22:53:52.504Z,9.81
2023-02-15T22:56:38.880Z,9.83
2023-02-15T22:59:16.202Z,9.76
2023-02-15T23:01:44.017Z,9.83
2023-02-15T23:04:20.938Z,9.75
2023-02-15T23:06:49.147Z,9.73
2023-02-15T23:09:17.049Z,9.85
2023-02-15T23:11:46.189Z,9.75
2023-02-15T23:14:35.246Z,9.62
2023-02-15T23:17:03.145Z,9.58
2023-02-15T23:19:30.834Z,9.60
2023-02-15T23:21:58.590Z,9.49
2023-02-15T23:24:31.601Z,9.71
2023-02-15T23:27:19.294Z,9.52
2023-02-15T23:29:47.117Z,9.44
2023-02-15T23:32:15.726Z,9.40
2023-02-15T23:34:43.581Z,9.41
2023-02-15T23:37:13.485Z,9.32
2023-02-15T23:39:59.804Z,9.44
2023-02-15T23:42:33.845Z,9.25
2023-02-15T23:45:02.434Z,9.16
2023-02-15T23:47:53.715Z,9.32
2023-02-15T23:50:29.496Z,9.48
2023-02-15T23:52:57.594Z,9.38
2023-02-15T23:55:37.551Z,9.30
2023-02-15T23:58:17.038Z,9.17
